Time;durP1;ratioP1;P1;durP2;ratioP2;P2;SDS_P1;SDS_P2;PMS_P1;PMS_P2;Temp;Humidity;BMP_temperature;BMP_pressure;BME280_temperature;BME280_humidity;BME280_pressure;Samples;Min_cycle;Max_cycle;Signal;HPM_P1;HPM_P2
2024/01/21 18:09:30;;;;;;;70.17;48.07;;;-2.00;99.90;;;;;;5098483;28;20280;-73
2024/01/21 18:12:07;;;;;;;71.77;49.10;;;-1.90;99.90;;;;;;5092357;28;20271;-73
2024/01/21 18:14:36;;;;;;;69.60;48.13;;;-1.90;99.90;;;;;;5097325;28;20180;-75
2024/01/21 18:17:02;;;;;;;71.53;48.53;;;-1.80;99.90;;;;;;5084258;28;20214;-75
2024/01/21 18:19:30;;;;;;;68.77;47.33;;;-1.80;99.90;;;;;;5077311;28;20181;-75
2024/01/21 18:21:55;;;;;;;64.37;45.60;;;-1.80;99.90;;;;;;5077478;28;20185;-76
2024/01/21 18:24:21;;;;;;;48.30;34.10;;;-1.70;99.90;;;;;;5074946;28;20260;-74
2024/01/21 18:27:00;;;;;;;54.73;37.83;;;-1.60;99.90;;;;;;5071748;28;20189;-76
2024/01/21 18:29:32;;;;;;;54.60;38.63;;;-1.60;99.90;;;;;;5070861;28;20184;-76
2024/01/21 18:32:03;;;;;;;52.77;37.67;;;-1.60;99.90;;;;;;5071662;28;20173;-76
2024/01/21 18:34:30;;;;;;;58.13;41.80;;;-1.60;99.90;;;;;;5072805;28;20648;-73
2024/01/21 18:37:32;;;;;;;58.70;40.90;;;-1.70;99.90;;;;;;5070380;28;20285;-73
2024/01/21 18:40:04;;;;;;;58.47;38.93;;;-1.70;99.90;;;;;;5069170;28;20264;-73
2024/01/21 18:42:59;;;;;;;60.57;43.47;;;-1.70;99.90;;;;;;5068940;28;20173;-73
2024/01/21 18:45:31;;;;;;;45.87;34.43;;;-1.60;99.90;;;;;;5068866;28;20170;-73
2024/01/21 18:48:02;;;;;;;47.23;35.13;;;-1.60;99.90;;;;;;5069923;28;20216;-73
2024/01/21 18:50:27;;;;;;;46.47;33.57;;;-1.50;99.90;;;;;;5069151;28;20172;-76
2024/01/21 18:53:23;;;;;;;39.03;26.70;;;-1.50;99.90;;;;;;5071812;28;20154;-74
2024/01/21 18:55:51;;;;;;;41.00;29.33;;;-1.40;99.90;;;;;;5069179;28;20178;-74
2024/01/21 18:58:20;;;;;;;41.33;29.00;;;-1.40;99.90;;;;;;5072906;28;20216;-75
2024/01/21 19:00:46;;;;;;;38.90;28.93;;;-1.30;99.90;;;;;;5072135;28;20170;-75
2024/01/21 19:03:29;;;;;;;42.43;32.10;;;-1.30;99.90;;;;;;5068923;28;20701;-75
2024/01/21 19:06:03;;;;;;;47.97;34.63;;;-1.20;99.90;;;;;;5069787;28;20177;-73
2024/01/21 19:08:29;;;;;;;45.67;33.40;;;-1.20;99.90;;;;;;5052402;28;20202;-74
2024/01/21 19:11:00;;;;;;;42.80;31.63;;;-1.10;99.90;;;;;;5048440;28;20273;-74
2024/01/21 19:13:33;;;;;;;42.07;31.37;;;-1.10;99.90;;;;;;5048317;28;20228;-74
2024/01/21 19:16:01;;;;;;;42.67;32.90;;;-1.00;99.90;;;;;;5049420;28;20206;-74
2024/01/21 19:18:27;;;;;;;44.27;33.07;;;-1.10;99.90;;;;;;5053227;28;20210;-76
2024/01/21 19:20:57;;;;;;;44.93;33.80;;;-1.10;99.90;;;;;;5038818;28;20247;-76
2024/01/21 19:23:30;;;;;;;45.90;34.60;;;-1.10;99.90;;;;;;5035744;28;20171;-74
2024/01/21 19:26:13;;;;;;;43.10;32.63;;;-1.20;99.90;;;;;;5036190;28;20261;-75
2024/01/21 19:28:39;;;;;;;40.60;30.13;;;-1.20;99.90;;;;;;5037467;28;20179;-76
2024/01/21 19:31:05;;;;;;;42.37;32.30;;;-1.20;99.90;;;;;;5037014;28;20256;-76
2024/01/21 19:33:44;;;;;;;38.27;30.60;;;-1.20;99.90;;;;;;5037521;28;20719;-73
2024/01/21 19:36:13;;;;;;;40.47;31.23;;;-1.20;99.90;;;;;;5035351;28;20277;-76
2024/01/21 19:38:39;;;;;;;42.63;30.60;;;-1.30;99.90;;;;;;5037668;28;20198;-74
2024/01/21 19:41:05;;;;;;;38.57;31.07;;;-1.30;99.90;;;;;;5034702;28;20231;-75
2024/01/21 19:43:31;;;;;;;36.33;28.70;;;-1.30;99.90;;;;;;5037707;28;20211;-76
2024/01/21 19:45:58;;;;;;;37.83;28.77;;;-1.30;99.90;;;;;;5037072;28;20210;-75
2024/01/21 19:48:31;;;;;;;38.10;29.17;;;-1.30;99.90;;;;;;5034887;28;20188;-74
2024/01/21 19:51:26;;;;;;;36.90;27.67;;;-1.20;99.90;;;;;;5034853;28;20179;-74
2024/01/21 19:53:54;;;;;;;36.70;29.33;;;-1.20;99.90;;;;;;5036493;28;20179;-75
2024/01/21 19:56:24;;;;;;;37.00;29.60;;;-1.20;99.90;;;;;;5036401;28;20210;-76
2024/01/21 19:59:06;;;;;;;36.27;28.07;;;-1.10;99.90;;;;;;5036380;28;20214;-75
2024/01/21 20:01:38;;;;;;;35.97;27.57;;;-1.10;99.90;;;;;;5036647;28;20233;-75
2024/01/21 20:04:05;;;;;;;34.67;27.00;;;-1.00;99.90;;;;;;5035891;28;20179;-74
2024/01/21 20:06:33;;;;;;;40.40;30.13;;;-1.00;99.90;;;;;;5035097;28;20294;-74
2024/01/21 20:09:04;;;;;;;43.27;29.80;;;-1.10;99.90;;;;;;5034213;28;20198;-74
2024/01/21 20:11:42;;;;;;;40.97;30.57;;;-1.10;99.90;;;;;;5034988;28;20183;-77
2024/01/21 20:14:43;;;;;;;44.43;34.23;;;-1.10;99.90;;;;;;5035251;28;20170;-73
2024/01/21 20:17:09;;;;;;;37.33;29.37;;;-1.10;99.90;;;;;;5034110;28;20202;-74
2024/01/21 20:19:35;;;;;;;37.07;29.70;;;-1.10;99.90;;;;;;5034600;28;20645;-77
2024/01/21 20:22:01;;;;;;;39.40;32.40;;;-1.00;99.90;;;;;;5034361;28;20197;-75
2024/01/21 20:24:26;;;;;;;41.73;33.00;;;-1.00;99.90;;;;;;5034512;28;20179;-75
2024/01/21 20:26:54;;;;;;;41.63;33.23;;;-1.10;99.90;;;;;;5035144;28;20260;-74
2024/01/21 20:29:20;;;;;;;42.37;34.80;;;-1.10;99.90;;;;;;5033708;28;20648;-74
2024/01/21 20:31:45;;;;;;;45.00;33.80;;;-1.00;99.90;;;;;;5032967;28;20183;-74
2024/01/21 20:34:11;;;;;;;40.77;30.87;;;-1.10;99.90;;;;;;5033662;28;20187;-74
2024/01/21 20:36:37;;;;;;;41.80;31.17;;;-1.10;99.90;;;;;;5033790;28;20198;-74
2024/01/21 20:39:04;;;;;;;38.93;30.23;;;-1.10;99.90;;;;;;5033283;28;20210;-74
2024/01/21 20:41:30;;;;;;;34.10;28.70;;;-1.10;99.90;;;;;;5033576;28;20232;-74
2024/01/21 20:43:56;;;;;;;35.87;28.90;;;-1.10;99.90;;;;;;5034620;28;20209;-74
2024/01/21 20:46:22;;;;;;;35.83;28.87;;;-1.00;99.90;;;;;;5033358;28;20333;-74
2024/01/21 20:48:48;;;;;;;34.63;27.73;;;-1.10;99.90;;;;;;5033421;28;20237;-74
2024/01/21 20:51:14;;;;;;;39.27;29.33;;;-1.00;99.90;;;;;;5033636;28;20183;-74
2024/01/21 20:53:42;;;;;;;36.37;28.13;;;-1.00;99.90;;;;;;5035880;28;20610;-74
2024/01/21 20:56:08;;;;;;;34.57;29.20;;;-1.00;99.90;;;;;;5033448;28;20268;-75
2024/01/21 20:58:37;;;;;;;35.80;27.90;;;-0.90;99.90;;;;;;5036601;28;20680;-75
2024/01/21 21:01:02;;;;;;;38.80;30.67;;;-0.90;99.90;;;;;;5037292;28;20179;-75
2024/01/21 21:03:28;;;;;;;44.00;30.67;;;-0.80;99.90;;;;;;5037161;28;20210;-76
2024/01/21 21:05:54;;;;;;;39.70;31.57;;;-0.80;99.90;;;;;;5037720;28;20178;-76
2024/01/21 21:08:20;;;;;;;36.30;28.83;;;-0.70;99.90;;;;;;5037926;28;20195;-77
2024/01/21 21:10:48;;;;;;;43.33;30.80;;;-0.80;99.90;;;;;;5038030;28;20273;-75
2024/01/21 21:13:16;;;;;;;36.23;29.80;;;-0.80;99.90;;;;;;5038213;28;20310;-76
2024/01/21 21:15:42;;;;;;;32.77;25.40;;;-0.80;99.90;;;;;;5035588;28;20178;-75
2024/01/21 21:18:08;;;;;;;34.57;25.87;;;-0.70;99.90;;;;;;5033467;28;20229;-77
2024/01/21 21:20:33;;;;;;;31.50;24.50;;;-0.70;99.90;;;;;;5033202;28;20262;-75
2024/01/21 21:22:59;;;;;;;32.30;25.47;;;-0.60;99.90;;;;;;5032101;28;20174;-75
2024/01/21 21:25:27;;;;;;;34.47;25.97;;;-0.70;99.90;;;;;;5033206;28;20177;-74
2024/01/21 21:27:55;;;;;;;33.37;27.10;;;-0.70;99.90;;;;;;5033831;28;20281;-74
2024/01/21 21:30:20;;;;;;;38.53;28.53;;;-0.70;99.90;;;;;;5032839;28;20183;-74
2024/01/21 21:32:46;;;;;;;37.50;30.10;;;-0.70;99.90;;;;;;5033364;28;20179;-74
2024/01/21 21:35:12;;;;;;;41.27;32.57;;;-0.70;99.90;;;;;;5033151;28;20258;-74
2024/01/21 21:37:38;;;;;;;42.73;33.40;;;-0.70;99.90;;;;;;5034376;28;20199;-75
2024/01/21 21:40:06;;;;;;;45.47;34.37;;;-0.70;99.90;;;;;;5034314;28;20178;-75
2024/01/21 21:42:32;;;;;;;46.27;34.20;;;-0.70;99.90;;;;;;5034014;28;20193;-76
2024/01/21 21:44:57;;;;;;;45.00;33.00;;;-0.80;99.90;;;;;;5034207;28;20171;-75
2024/01/21 21:47:23;;;;;;;40.40;31.57;;;-0.80;99.90;;;;;;5035098;28;20203;-74
2024/01/21 21:49:49;;;;;;;43.57;33.07;;;-0.80;99.90;;;;;;5032392;28;20179;-74
2024/01/21 21:52:14;;;;;;;46.87;36.17;;;-0.80;99.90;;;;;;5032310;28;20278;-75
2024/01/21 21:54:42;;;;;;;46.20;36.17;;;-0.70;99.90;;;;;;5033326;28;20178;-74
2024/01/21 21:57:08;;;;;;;38.30;29.23;;;-0.70;99.90;;;;;;5032715;28;20199;-74
2024/01/21 21:59:34;;;;;;;39.10;30.40;;;-0.70;99.90;;;;;;5032575;28;20633;-74
2024/01/21 22:01:59;;;;;;;33.50;22.73;;;-0.70;99.90;;;;;;5032312;28;20174;-74
2024/01/21 22:04:25;;;;;;;26.50;21.80;;;-0.60;99.90;;;;;;5032192;28;20187;-74
2024/01/21 22:06:50;;;;;;;32.67;24.20;;;-0.50;99.90;;;;;;5032387;28;20203;-74
2024/01/21 22:09:16;;;;;;;27.30;20.10;;;-0.40;99.90;;;;;;5031848;28;20201;-74
2024/01/21 22:11:42;;;;;;;28.97;21.10;;;-0.30;99.90;;;;;;5033563;28;20182;-74
2024/01/21 22:14:07;;;;;;;21.57;17.73;;;-0.20;99.90;;;;;;5032062;28;20186;-74
2024/01/21 22:16:33;;;;;;;18.80;15.40;;;-0.10;99.90;;;;;;5032365;28;20206;-74
2024/01/21 22:18:58;;;;;;;19.83;15.10;;;0.00;99.90;;;;;;5031959;28;20245;-74
2024/01/21 22:21:25;;;;;;;22.60;16.30;;;0.10;99.90;;;;;;5032681;28;20198;-74
2024/01/21 22:23:51;;;;;;;20.27;16.27;;;0.20;99.90;;;;;;5032039;28;20201;-74
2024/01/21 22:26:17;;;;;;;21.00;15.83;;;0.10;99.90;;;;;;5031910;28;20198;-74
2024/01/21 22:28:43;;;;;;;19.33;15.53;;;0.10;99.90;;;;;;5033188;28;20171;-74
2024/01/21 22:31:11;;;;;;;20.57;16.03;;;0.20;99.90;;;;;;5032835;28;20179;-74
2024/01/21 22:33:36;;;;;;;22.27;15.10;;;0.20;99.90;;;;;;5032261;28;20593;-74
2024/01/21 22:36:02;;;;;;;19.00;15.10;;;0.20;99.90;;;;;;5033199;28;20241;-76
2024/01/21 22:38:28;;;;;;;19.00;15.00;;;0.30;99.90;;;;;;5033518;28;20238;-76
2024/01/21 22:40:54;;;;;;;18.07;14.20;;;0.20;99.90;;;;;;5035137;28;20175;-76
2024/01/21 22:43:20;;;;;;;18.17;14.33;;;0.30;99.90;;;;;;5036222;28;20229;-76
2024/01/21 22:45:46;;;;;;;17.30;13.67;;;0.20;99.90;;;;;;5035849;28;20186;-75
2024/01/21 22:48:12;;;;;;;19.27;15.20;;;0.30;99.90;;;;;;5036084;28;20174;-75
2024/01/21 22:50:39;;;;;;;19.30;15.47;;;0.30;99.90;;;;;;5036950;28;20249;-76
2024/01/21 22:53:05;;;;;;;29.03;18.50;;;0.30;99.90;;;;;;5038079;28;20178;-75
2024/01/21 22:55:31;;;;;;;19.20;15.20;;;0.40;99.90;;;;;;5039637;28;20206;-76
2024/01/21 22:57:57;;;;;;;18.97;14.43;;;0.40;99.90;;;;;;5039462;28;20199;-74
2024/01/21 23:00:25;;;;;;;21.80;15.03;;;0.30;99.90;;;;;;5036433;28;20176;-76
2024/01/21 23:02:53;;;;;;;20.60;15.13;;;0.30;99.90;;;;;;5037263;28;20183;-76
2024/01/21 23:05:19;;;;;;;17.90;14.40;;;0.20;99.90;;;;;;5038837;28;20198;-76
2024/01/21 23:07:45;;;;;;;17.87;13.83;;;0.20;99.90;;;;;;5038357;28;20215;-76
2024/01/21 23:10:12;;;;;;;17.67;13.83;;;0.20;99.90;;;;;;5038859;28;20236;-76
2024/01/21 23:12:38;;;;;;;17.57;13.87;;;0.30;99.90;;;;;;5038933;28;20222;-76
2024/01/21 23:15:05;;;;;;;19.40;15.23;;;0.30;99.90;;;;;;5038359;28;20229;-76
2024/01/21 23:17:30;;;;;;;18.57;14.33;;;0.30;99.90;;;;;;5037382;28;20211;-74
2024/01/21 23:19:56;;;;;;;16.33;13.70;;;0.40;99.90;;;;;;5036392;28;20172;-74
2024/01/21 23:22:22;;;;;;;19.90;14.93;;;0.40;99.90;;;;;;5036325;28;20551;-74
2024/01/21 23:24:49;;;;;;;18.53;14.80;;;0.40;99.90;;;;;;5034987;28;20171;-74
2024/01/21 23:27:18;;;;;;;22.27;16.13;;;0.40;99.90;;;;;;5035099;28;20237;-74
2024/01/21 23:29:44;;;;;;;17.93;15.10;;;0.40;99.90;;;;;;5034791;28;20233;-74
2024/01/21 23:32:12;;;;;;;20.07;16.20;;;0.40;99.90;;;;;;5036072;28;20273;-74
2024/01/21 23:34:37;;;;;;;18.40;14.07;;;0.40;99.90;;;;;;5034704;28;20179;-74
2024/01/21 23:37:04;;;;;;;17.67;15.03;;;0.40;99.90;;;;;;5036031;28;20538;-74
2024/01/21 23:39:30;;;;;;;19.23;14.90;;;0.40;99.90;;;;;;5034906;28;20217;-74
2024/01/21 23:41:56;;;;;;;17.10;13.97;;;0.40;99.90;;;;;;5035004;28;20179;-74
2024/01/21 23:44:21;;;;;;;18.17;14.37;;;0.40;99.90;;;;;;5034712;28;20191;-74
2024/01/21 23:46:48;;;;;;;16.87;13.67;;;0.40;99.90;;;;;;5034675;28;20199;-74
2024/01/21 23:49:14;;;;;;;17.93;13.97;;;0.40;99.90;;;;;;5035791;28;20175;-74
2024/01/21 23:51:43;;;;;;;17.60;14.20;;;0.50;99.90;;;;;;5034531;28;20229;-74
2024/01/21 23:54:12;;;;;;;17.97;13.50;;;0.50;99.90;;;;;;5034442;28;20621;-74
2024/01/21 23:56:48;;;;;;;17.17;13.97;;;0.60;99.90;;;;;;5038799;28;20262;-76
2024/01/21 23:59:15;;;;;;;16.10;13.87;;;0.60;99.90;;;;;;5038125;28;20272;-76
